Site contains unofficial IBTrACS data. Visit the IBTrACS Website to access archived data.

1962 Tropical Cyclone NOT_NAMED (1962028S13130)


IBTrACS version v04r00. Visit IBTrACS website for data access.
Please direct all questions to the IBTrACS Q and A forum

Storm track - Intensity - Wind Radii - Intensity Data - Source Data - All data

Summary Information

Storm ID 1962028S13130
Start Jan 27 23Z
Landfall Jan 29 23Z
Max Intensity 55 kt (Feb 1 06Z), 985 mb (Feb 1 06Z)
End Feb 12 23Z
ATCF IDs ,SH111962
Track status Best track data.

Storm track plot

Map of storm track

Intensity plots

Map of storm track

Radial wind information

No radial wind information for this storm


Position and Intensity Table

BASIN ISO_TIME_________ NATURE LAT LON WMO PRES BOM PRES DS824 WIND DS824 PRES NEUMANN WIND NEUMANN PRES
degrees north degrees east mb mb kts mb kts mb
SI 1962-01-27 23:30:00 NR -13.30 129.70 998 998
SI 1962-01-28 00:00:00 TS -13.30 129.68 35 998
SI 03:00:00 TS -13.35 129.56
SI 06:00:00 TS -13.40 129.45
SI 09:00:00 TS -13.47 129.34
SI 12:00:00 TS -13.53 129.29 35 998
SI 15:00:00 TS -13.61 129.26 35 998
SI 18:00:00 TS -13.70 129.23 35 998
SI 21:00:00 TS -13.80 129.19 35 998
SI 23:00:00 TS -13.73 129.07 35 998
SI 23:30:00 TS -13.59 129.00 998 998 35 998
SI 1962-01-29 00:00:00 TS -13.24 128.82 997 35 998 35 998
SI 03:00:00 TS -13.09 128.78 997 35 998
SI 06:00:00 TS -13.15 128.84 997 35 998
SI 09:00:00 TS -13.29 128.94 997 35 997
SI 11:00:00 TS -13.49 129.02 997 997 35 997
SI 12:00:00 TS -13.60 129.06 997 35 997
SI 15:00:00 TS -14.04 129.18 997 35 997
SI 18:00:00 TS -14.50 129.28 997 35 997
SI 21:00:00 TS -14.87 129.34 997 35 997
SI 23:00:00 TS -15.07 129.36 997 35 997
SI 23:30:00 TS -15.11 129.36 997 997 35 997
SI 1962-01-30 00:00:00 TS -15.15 129.36 35 997
SI 03:00:00 TS -15.36 129.36 35 997
SI 06:00:00 TS -15.54 129.33 35 997
SI 09:00:00 TS -15.70 129.25 35 996
SI 11:00:00 TS -15.80 129.18 35 996
SI 12:00:00 TS -15.86 129.14 35 996
SI 13:00:00 TS -15.92 129.10 35 996
SI 15:00:00 TS -16.04 129.02 35 996
SI 18:00:00 TS -16.20 128.89 35 996
SI 21:00:00 TS -16.30 128.77 35 996
SI 23:00:00 TS -16.34 128.67 35 996
SI 1962-01-31 00:00:00 TS -16.38 128.56 35 996 35 996
SI 01:00:00 TS -16.42 128.44 996 996 34 995
SI 03:00:00 TS -16.44 128.26 32 995
SI 06:00:00 TS -16.42 128.01 30 995
SI 09:00:00 TS -16.34 127.80 30 995
SI 11:00:00 TS -16.27 127.66 30 995
SI 12:00:00 TS -16.22 127.46 30 995
SI 15:00:00 TS -16.05 126.91 30 995
SI 17:00:00 TS -15.86 126.28 995 995 30 995
SI 18:00:00 TS -15.64 125.51 995 30 995
SI 21:00:00 TS -15.38 124.76 995 35 995
SI 23:00:00 TS -15.31 124.45 995 38 995
SI 1962-02-01 00:00:00 TS -15.31 124.29 995 40 995
SI 01:00:00 TS -15.32 124.12 995 995 40 995
SI 03:00:00 TS -15.41 123.77 991 40 995
SI 06:00:00 TS -15.65 123.23 986 55 985 40 995
SI 07:00:00 TS -15.75 123.05 985 985 41 993
SI 09:00:00 TS -15.96 122.69 45 991
SI 11:00:00 TS -16.19 122.31 48 989
SI 12:00:00 TS -16.31 122.12 50 988
SI 15:00:00 TS -16.64 121.51 52 986
SI 18:00:00 TS -16.95 120.90 55 985
SI 21:00:00 TS -17.23 120.29 55 985
SI 23:00:00 TS -17.40 119.89 55 985
SI 1962-02-02 00:00:00 TS -17.48 119.70 55 985 55 985
SI 01:00:00 TS -17.56 119.50 985 985 55 985
SI 03:00:00 TS -17.73 119.11 55 985
SI 06:00:00 TS -17.96 118.52 55 985
SI 09:00:00 TS -18.16 117.96 55 985
SI 11:00:00 TS -18.27 117.60 55 985
SI 12:00:00 TS -18.32 117.43 55 985
SI 15:00:00 TS -18.46 116.92 55 985
SI 18:00:00 TS -18.58 116.44 55 985
SI 21:00:00 TS -18.68 115.99 55 985
SI 23:00:00 TS -18.73 115.71 55 985
SI 1962-02-03 00:00:00 TS -18.76 115.57 55 985 55 985
SI 01:00:00 TS -18.79 115.44 985 985 55 985
SI 03:00:00 TS -18.85 115.18 55 985
SI 06:00:00 TS -18.93 114.86 55 985
SI 09:00:00 TS -18.97 114.62 55 985
SI 11:00:00 TS -18.98 114.49 55 985
SI 12:00:00 TS -18.99 114.43 55 985
SI 15:00:00 TS -18.99 114.25 52 986
SI 18:00:00 TS -18.98 114.09 50 987
SI 21:00:00 TS -18.99 113.93 50 987
SI 23:00:00 TS -19.00 113.81 50 987
SI 1962-02-04 00:00:00 TS -19.00 113.75 45 990 50 988
SI 01:00:00 TS -19.00 113.69 990 990 50 988
SI 03:00:00 TS -19.01 113.54 50 988
SI 06:00:00 TS -19.02 113.32 50 989
SI 09:00:00 TS -19.02 113.10 47 989
SI 11:00:00 TS -19.03 112.95 45 989
SI 12:00:00 TS -19.03 112.87 45 990
SI 15:00:00 TS -19.03 112.63 45 990
SI 18:00:00 TS -19.02 112.40 45 990
SI 21:00:00 TS -19.01 112.43 990 990 45 990
SI 23:00:00 TS -19.03 112.82 990 45 990
SI 1962-02-05 00:00:00 TS -19.04 113.11 990 45 990 45 990
SI 01:00:00 TS -19.06 113.30 990 990 45 990
SI 03:00:00 TS -19.07 113.30 45 990
SI 06:00:00 TS -19.05 113.13 45 990
SI 09:00:00 TS -19.00 112.95 45 990
SI 11:00:00 TS -18.96 112.82 45 990
SI 12:00:00 TS -18.94 112.75 45 990
SI 15:00:00 TS -18.87 112.53 45 991
SI 18:00:00 TS -18.81 112.30 45 992
SI 21:00:00 TS -18.71 111.89 42 992
SI 23:00:00 TS -18.59 111.36 40 992
SI 1962-02-06 00:00:00 TS -18.46 110.76 40 995 40 993
SI 01:00:00 TS -18.26 109.91 995 995 40 993
SI 03:00:00 TS -18.11 109.40 40 993
SI 06:00:00 TS -18.03 109.15 40 994
SI 09:00:00 TS -17.96 108.89 40 994
SI 11:00:00 TS -17.94 108.73 40 994
SI 12:00:00 TS -17.93 108.64 40 995
SI 15:00:00 TS -17.92 108.40 40 995
SI 18:00:00 TS -17.94 108.14 40 995
SI 21:00:00 TS -17.99 107.86 37 995
SI 23:00:00 TS -18.05 107.65 35 995
SI 1962-02-07 00:00:00 TS -18.08 107.55 35 997 35 996
SI 01:00:00 TS -18.11 107.44 997 997 35 996
SI 03:00:00 TS -18.20 107.20 997 35 996
SI 06:00:00 TS -18.36 106.80 997 35 996
SI 08:00:00 TS -18.49 106.51 997 997 35 996
SI 09:00:00 TS -18.57 106.37 35 996
SI 11:00:00 TS -18.72 106.09 35 996
SI 12:00:00 TS -18.81 105.95 35 997
SI 15:00:00 TS -19.08 105.57 35 997
SI 18:00:00 TS -19.38 105.23 35 997
SI 21:00:00 TS -19.65 104.93 35 997
SI 23:00:00 TS -19.82 104.74 35 997
SI 1962-02-08 00:00:00 TS -19.91 104.66 35 997 35 997
SI 01:00:00 TS -19.99 104.57 997 997 35 997
SI 03:00:00 TS -20.15 104.39 35 997
SI 06:00:00 TS -20.39 104.14 35 997
SI 09:00:00 TS -20.63 103.93 35 997
SI 11:00:00 TS -20.78 103.81 35 997
SI 12:00:00 TS -20.86 103.76 35 997
SI 15:00:00 TS -21.07 103.60 35 997
SI 18:00:00 TS -21.28 103.47 35 997
SI 21:00:00 TS -21.51 103.33 35 997
SI 23:00:00 TS -21.67 103.25 35 997
SI 1962-02-09 00:00:00 TS -21.74 103.21 35 998 35 997
SI 01:00:00 TS -21.82 103.17 998 998 35 997
SI 03:00:00 TS -21.97 103.08 35 997
SI 06:00:00 TS -22.19 102.98 35 997
SI 09:00:00 TS -22.44 102.92 35 997
SI 11:00:00 TS -22.60 102.89 35 997
SI 12:00:00 TS -22.68 102.88 35 998
SI 15:00:00 TS -22.90 102.87 35 998
SI 18:00:00 TS -23.11 102.88 35 998
SI 21:00:00 TS -23.33 102.89 32 998
SI 23:00:00 TS -23.48 102.91 30 998
SI 1962-02-10 00:00:00 TS -23.55 102.93 30 1000 30 999
SI 01:00:00 TS -23.61 102.94 1000 1000 30 999
SI 03:00:00 TS -23.73 102.98 1000 30 999
SI 06:00:00 TS -23.91 103.07 1001 30 999
SI 09:00:00 TS -24.08 103.19 1001 30 999
SI 11:00:00 TS -24.18 103.30 1002 1002 30 999
SI 12:00:00 TS -23.94 103.30 30 1000
SI 15:00:00 TS -23.56 103.28 27 1001
SI 18:00:00 TS -23.55 103.27 25 1002
SI 21:00:00 TS -23.65 103.24 25 1002
SI 23:00:00 TS -23.67 103.14 25 1002
SI 1962-02-11 00:00:00 TS -23.65 103.02 20 1005 25 1003
SI 01:00:00 TS -23.52 102.75 1005 1005 24 1003
SI 03:00:00 TS -23.49 102.54 22 1003
SI 06:00:00 TS -23.53 102.47 20 1004
SI 09:00:00 TS -23.52 102.33
SI 11:00:00 TS -23.58 102.38
SI 12:00:00 TS -23.62 102.41
SI 15:00:00 TS -23.76 102.53
SI 18:00:00 TS -23.90 102.70
SI 21:00:00 TS -24.00 102.88
SI 23:00:00 TS -24.07 103.02
SI 1962-02-12 00:00:00 TS -24.12 103.09
SI 03:00:00 TS -24.30 103.33
SI 06:00:00 TS -24.49 103.58
SI 09:00:00 TS -24.61 103.84
SI 11:00:00 TS -24.68 104.01
SI 12:00:00 TS -24.72 104.10
SI 15:00:00 TS -24.81 104.36
SI 18:00:00 TS -24.90 104.63
SI 21:00:00 NR -24.96 104.92
SI 23:00:00 NR -25.00 105.10

Source Information

Agency Information
USA bsh111962.txt
TOKYO
CMA
HKO
NEWDELHI
REUNION
BOM IDCKMSTM0S.csv:Line=3373:unnamed
NADI
WELLINGTON
DS824 aus_area.dat:309:NOT NAMED
TD9636 cons_worldwide_trop_cyclone_18710101-19891231-006:Line=6106
TD9635
NEUMANN tracks.sh:Storm=32:HSK1062:BSH1162:BM307
MLC

All available IBTrACS Data

SEASON BASIN SUBBASIN ISO_TIME_________ NATURE LAT LON WMO PRES WMO AGENCY DIST2LAND LANDFALL IFLAG USA AGENCY USA ATCF_ID USA LAT USA LON USA SSHS BOM LAT BOM LON BOM PRES BOM PRES_METHOD DS824 LAT DS824 LON DS824 STAGE DS824 WIND DS824 PRES TD9636 LAT TD9636 LON TD9636 STAGE NEUMANN LAT NEUMANN LON NEUMANN CLASS NEUMANN WIND NEUMANN PRES STORM SPEED STORM DIR
Year degrees north degrees east mb km km degrees north degrees east 1 degrees north degrees east mb degrees north degrees east kts mb degrees north degrees east degrees north degrees east kts mb kts degrees
1962 SI WA 1962-01-27 23:30:00 NR -13.30 129.70 998 bom 24 24 ______O_______ -1 -13.30 129.70 998 2 0
1962 SI WA 1962-01-28 00:00:00 TS -13.30 129.68 24 24 ______P__O____ -1 -13.31 129.68 -13.30 129.70 TC 35 998 2 249
1962 SI WA 03:00:00 TS -13.35 129.56 24 24 ______P__P____ -1 -13.35 129.54 -13.36 129.60 TC 3 247
1962 SI WA 06:00:00 TS -13.40 129.45 44 43 ______P__P____ -1 -13.40 129.41 -13.41 129.49 TC 2 242
1962 SI WA 09:00:00 TS -13.47 129.34 54 54 ______P__P____ -1 -13.45 129.29 -13.48 129.40 TC 2 229
1962 SI WA 12:00:00 TS -13.53 129.29 54 54 ______P__P__O_ -1 -13.53 129.19 -13.55 129.30 TC -13.50 129.70 TC 35 998 2 212
1962 SI WA 15:00:00 TS -13.61 129.26 54 54 ______P__P__P_ -1 -13.61 129.10 -13.64 129.21 TC -13.54 129.66 TC 35 998 2 204
1962 SI WA 18:00:00 TS -13.70 129.23 58 54 ______P__P__O_ -1 -13.72 129.04 -13.74 129.13 TC -13.60 129.60 TC 35 998 2 201
1962 SI WA 21:00:00 TS -13.80 129.19 54 54 ______P__P__P_ -1 -13.86 129.00 -13.86 129.06 TC -13.69 129.51 TC 35 998 2 256
1962 SI WA 23:00:00 TS -13.73 129.07 68 68 ______P__PO_P_ -1 -13.97 129.00 -13.95 129.02 TC -12.00 128.10 1 -13.76 129.44 TC 35 998 7 318
1962 SI WA 23:30:00 TS -13.59 129.00 998 bom 82 82 ______O__PP_P_ -1 -14.00 129.00 998 -13.97 129.01 TC -12.01 128.14 1 -13.78 129.42 TC 35 998 33 334
1962 SI WA 1962-01-29 00:00:00 TS -13.24 128.82 113 113 O_____P__OP_O_ jtwc_sh SH111962 -12.00 128.20 -1 -14.03 129.00 997 -14.00 129.00 TC 35 998 -12.03 128.17 1 -13.80 129.40 TC 35 998 9 337
1962 SI WA 03:00:00 TS -13.09 128.78 117 117 P_____P__PP_P_ SH111962 -12.14 128.41 -1 -14.23 129.04 997 -14.17 128.95 TC -12.12 128.39 1 -13.89 129.28 TC 35 998 1 16
1962 SI WA 06:00:00 TS -13.15 128.84 117 99 O_____P__PP_O_ jtwc_sh SH111962 -12.30 128.60 -1 -14.44 129.09 997 -14.35 128.91 TC -12.28 128.60 1 -14.00 129.20 TC 35 998 2 142
1962 SI WA 09:00:00 TS -13.29 128.94 99 86 P_____P__PP_P_ SH111962 -12.52 128.76 -1 -14.66 129.16 997 -14.55 128.87 TC -12.54 128.79 1 -14.18 129.23 TC 35 997 5 154
1962 SI WA 11:00:00 TS -13.49 129.02 997 bom 86 73 P_____O__PO_P_ SH111962 -12.75 128.85 -1 -14.80 129.20 997 -14.70 128.85 TC -12.80 128.90 1 -14.33 129.28 TC 35 997 7 161
1962 SI WA 12:00:00 TS -13.60 129.06 73 39 O_____P__PP_O_ jtwc_sh SH111962 -12.90 128.90 -1 -14.86 129.23 997 -14.77 128.84 TC -12.96 128.95 1 -14.40 129.30 TC 35 997 9 164
1962 SI WA 15:00:00 TS -14.04 129.18 39 10 P_____P__PP_P_ SH111962 -13.54 129.06 -1 -15.01 129.32 997 -15.00 128.80 TC -13.51 129.09 1 -14.61 129.35 TC 35 997 9 167
1962 SI WA 18:00:00 TS -14.50 129.28 15 11 O_____P__PP_O_ jtwc_sh SH111962 -14.20 129.20 -1 -15.17 129.39 997 -15.23 128.76 TC -14.13 129.19 1 -14.80 129.40 TC 35 997 8 170
1962 SI WA 21:00:00 TS -14.87 129.34 11 0 P_____P__PP_P_ SH111962 -14.67 129.27 -1 -15.33 129.42 997 -15.46 128.71 TC -14.69 129.27 1 -14.95 129.45 TC 35 997 7 173
1962 SI WA 23:00:00 TS -15.07 129.36 0 0 P_____P__PO_P_ SH111962 -14.91 129.29 -1 -15.46 129.41 997 -15.61 128.68 TC -15.00 129.30 1 -15.05 129.48 TC 35 997 6 0
1962 SI WA 23:30:00 TS -15.11 129.36 997 bom 0 0 P_____O__PP_P_ SH111962 -14.96 129.30 -1 -15.50 129.40 997 -15.65 128.66 TC -15.05 129.31 1 -15.07 129.49 TC 35 997 5 0
1962 SI WA 1962-01-30 00:00:00 TS -15.15 129.36 0 0 O_____P__PP_O_ jtwc_sh SH111962 -15.00 129.30 -1 -15.55 129.39 -15.68 128.65 TC -15.10 129.31 1 -15.10 129.50 TC 35 997 4 0
1962 SI WA 03:00:00 TS -15.36 129.36 0 0 P_____P__PP_P_ SH111962 -15.19 129.31 -1 -15.85 129.28 -15.90 128.58 TC -15.30 129.34 1 -15.28 129.59 TC 35 997 4 187
1962 SI WA 06:00:00 TS -15.54 129.33 0 0 O_____P__PP_O_ jtwc_sh SH111962 -15.30 129.30 -1 -16.17 129.10 -16.11 128.48 TC -15.40 129.33 1 -15.50 129.60 TC 35 997 4 199
1962 SI WA 09:00:00 TS -15.70 129.25 0 0 P_____P__PP_P_ SH111962 -15.40 129.31 -1 -16.48 128.87 -16.30 128.36 TC -15.46 129.32 1 -15.74 129.44 TC 35 996 4 208
1962 SI WA 11:00:00 TS -15.80 129.18 0 0 P_____P__PO_P_ SH111962 -15.46 129.31 -1 -16.66 128.69 -16.42 128.27 TC -15.50 129.30 1 -15.91 129.28 TC 35 996 4 213
1962 SI WA 12:00:00 TS -15.86 129.14 0 0 O_____P__PP_O_ jtwc_sh SH111962 -15.50 129.30 -1 -16.74 128.60 -16.48 128.21 TC -15.54 129.30 1 -16.00 129.20 TC 35 996 4 211
1962 SI WA 13:00:00 TS -15.92 129.10 bom 0 0 P_____O__PP_P_ SH111962 -15.55 129.29 -1 -16.80 128.50 -16.53 128.16 TC -15.59 129.29 1 -16.10 129.14 TC 35 996 4 211
1962 SI WA 15:00:00 TS -16.04 129.02 0 0 P_____P__PP_P_ SH111962 -15.65 129.25 -1 -16.91 128.32 -16.63 128.04 TC -15.67 129.27 1 -16.32 129.02 TC 35 996 4 215
1962 SI WA 18:00:00 TS -16.20 128.89 0 0 O_____P__PP_O_ jtwc_sh SH111962 -15.80 129.20 -1 -17.01 128.02 -16.75 127.83 TC -15.80 129.25 1 -16.60 128.80 TC 35 996 4 224
1962 SI WA 21:00:00 TS -16.30 128.77 0 0 P_____P__PP_P_ SH111962 -15.91 129.20 -1 -17.03 127.68 -16.84 127.59 TC -15.92 129.22 1 -16.74 128.52 TC 35 996 3 237
1962 SI WA 23:00:00 TS -16.34 128.67 0 0 P_____P__PO_P_ SH111962 -15.97 129.20 -1 -16.99 127.45 -16.89 127.40 TC -16.00 129.20 1 -16.78 128.31 TC 35 996 4 247
1962 SI WA 1962-01-31 00:00:00 TS -16.38 128.56 0 0 O_____P__OP_O_ jtwc_sh SH111962 -16.00 129.20 -1 -16.95 127.33 -16.90 127.30 TC 35 996 -16.04 129.19 1 -16.80 128.20 TC 35 996 7 250
1962 SI WA 01:00:00 TS -16.42 128.44 996 bom 0 0 P_____O__PP_P_ SH111962 -16.03 129.19 -1 -16.90 127.20 996 -16.87 127.20 TC -16.07 129.19 1 -16.84 128.09 TC 34 995 6 258
1962 SI WA 03:00:00 TS -16.44 128.26 0 0 P_____P__PP_P_ SH111962 -16.10 129.15 -1 -16.71 126.96 -16.79 126.98 TC -16.14 129.18 1 -16.90 127.87 TC 32 995 5 270
1962 SI WA 06:00:00 TS -16.42 128.01 0 0 O_____P__PP_O_ jtwc_sh SH111962 -16.20 129.10 -1 -16.33 126.58 -16.65 126.62 TC -16.24 129.16 1 -16.90 127.50 TC 30 995 5 284
1962 SI WA 09:00:00 TS -16.34 127.80 0 0 P_____P__PP_P_ SH111962 -16.30 129.10 -1 -15.88 126.17 -16.48 126.23 TC -16.34 129.13 1 -16.71 127.11 TC 30 995 4 295
1962 SI WA 11:00:00 TS -16.27 127.66 0 0 P_____P__PO_P_ SH111962 -16.37 129.10 -1 -15.59 125.89 -16.37 125.95 TC -16.40 129.10 1 -16.51 126.84 TC 30 995 7 289
1962 SI WA 12:00:00 TS -16.22 127.46 0 0 O_____P__P__O_ jtwc_sh SH111962 -16.40 129.10 -1 -15.46 125.75 -16.31 125.81 TC 1 -16.40 126.70 TC 30 995 11 287
1962 SI WA 15:00:00 TS -16.05 126.91 0 0 ______P__P__P_ SH111962 -1 -15.13 125.31 -16.14 125.37 TC 1 -16.06 126.30 TC 30 995 14 288
1962 SI WA 17:00:00 TS -15.86 126.28 995 bom 0 0 ______O__P__P_ SH111962 -1 -15.00 125.00 995 -16.04 125.05 TC 1 -15.82 126.03 TC 30 995 28 287
1962 SI WA 18:00:00 TS -15.64 125.51 0 0 ______P__P__O_ SH111962 -1 -14.96 124.85 995 -16.00 124.89 TC 1 -15.70 125.90 TC 30 995 23 288
1962 SI WA 21:00:00 TS -15.38 124.76 0 0 ______P__P__P_ SH111962 -1 -14.95 124.37 995 -15.89 124.40 TC 1 -15.29 125.51 TC 35 995 13 287
1962 SI WA 23:00:00 TS -15.31 124.45 31 31 ______P__P__P_ SH111962 -1 -15.03 124.04 995 -15.84 124.06 TC 1 -15.07 125.24 TC 38 995 9 278
1962 SI WA 1962-02-01 00:00:00 TS -15.31 124.29 35 35 ______P__P__O_ SH111962 -1 -15.11 123.87 995 -15.82 123.89 TC 1 -15.00 125.10 TC 40 995 10 268
1962 SI WA 01:00:00 TS -15.32 124.12 995 bom 46 46 ______O__P__P_ SH111962 -1 -15.20 123.70 995 -15.82 123.71 TC 1 -14.96 124.94 TC 40 995 10 259
1962 SI WA 03:00:00 TS -15.41 123.77 68 74 ______P__P__P_ SH111962 -1 -15.45 123.35 991 -15.82 123.35 TC 1 -14.94 124.62 TC 40 995 11 249
1962 SI WA 06:00:00 TS -15.65 123.23 85 77 ______P__O__O_ SH111962 -1 -15.94 122.79 986 -15.90 122.80 TC 55 985 1 -15.10 124.10 TC 40 995 12 244
1962 SI WA 07:00:00 TS -15.75 123.05 985 bom 85 59 ______O__P__P_ SH111962 -1 -16.10 122.60 985 4 -15.97 122.61 TC 1 -15.18 123.94 TC 41 993 12 239
1962 SI WA 09:00:00 TS -15.96 122.69 59 59 ______P__P__P_ SH111962 -1 -16.36 122.21 -16.12 122.23 TC 1 -15.40 123.62 TC 45 991 13 238
1962 SI WA 11:00:00 TS -16.19 122.31 69 69 ______P__P__P_ SH111962 -1 -16.60 121.82 -16.30 121.83 TC 1 -15.67 123.28 TC 48 989 13 238
1962 SI WA 12:00:00 TS -16.31 122.12 78 77 ______P__P__O_ SH111962 -1 -16.72 121.62 -16.40 121.63 TC 1 -15.80 123.10 TC 50 988 13 240
1962 SI WA 15:00:00 TS -16.64 121.51 101 96 ______P__P__P_ SH111962 -1 -17.02 121.01 -16.72 121.02 TC 1 -16.16 122.52 TC 52 986 13 241
1962 SI WA 18:00:00 TS -16.95 120.90 142 142 ______P__P__O_ SH111962 -1 -17.29 120.39 -17.06 120.40 TC 1 -16.50 121.90 TC 55 985 13 243
1962 SI WA 21:00:00 TS -17.23 120.29 196 196 ______P__P__P_ SH111962 -1 -17.53 119.79 -17.40 119.79 TC 1 -16.76 121.30 TC 55 985 13 245
1962 SI WA 23:00:00 TS -17.40 119.89 232 232 ______P__P__P_ SH111962 -1 -17.67 119.39 -17.60 119.39 TC 1 -16.92 120.90 TC 55 985 12 246
1962 SI WA 1962-02-02 00:00:00 TS -17.48 119.70 244 244 ______P__O__O_ SH111962 -1 -17.74 119.19 -17.70 119.20 TC 55 985 1 -17.00 120.70 TC 55 985 12 246
1962 SI WA 01:00:00 TS -17.56 119.50 985 bom 258 258 ______O__P__P_ SH111962 -1 -17.80 119.00 985 -17.78 119.00 TC 1 -17.10 120.50 TC 55 985 12 246
1962 SI WA 03:00:00 TS -17.73 119.11 267 240 ______P__P__P_ SH111962 -1 -17.95 118.61 -17.93 118.61 TC 1 -17.31 120.09 TC 55 985 12 247
1962 SI WA 06:00:00 TS -17.96 118.52 243 239 ______P__P__O_ SH111962 -1 -18.15 118.03 -18.14 118.04 TC 1 -17.60 119.50 TC 55 985 12 249
1962 SI WA 09:00:00 TS -18.16 117.96 241 238 ______P__P__P_ SH111962 -1 -18.32 117.46 -18.32 117.49 TC 1 -17.82 118.93 TC 55 985 11 251
1962 SI WA 11:00:00 TS -18.27 117.60 240 240 ______P__P__P_ SH111962 -1 -18.43 117.10 -18.43 117.13 TC 1 -17.94 118.57 TC 55 985 11 252
1962 SI WA 12:00:00 TS -18.32 117.43 246 235 ______P__P__O_ SH111962 -1 -18.48 116.92 -18.48 116.96 TC 1 -18.00 118.40 TC 55 985 10 253
1962 SI WA 15:00:00 TS -18.46 116.92 235 223 ______P__P__P_ SH111962 -1 -18.61 116.41 -18.62 116.46 TC 1 -18.16 117.89 TC 55 985 10 254
1962 SI WA 18:00:00 TS -18.58 116.44 225 221 ______P__P__O_ SH111962 -1 -18.72 115.94 -18.73 115.99 TC 1 -18.30 117.40 TC 55 985 9 256
1962 SI WA 21:00:00 TS -18.68 115.99 224 224 ______P__P__P_ SH111962 -1 -18.81 115.50 -18.83 115.57 TC 1 -18.40 116.90 TC 55 985 9 258
1962 SI WA 23:00:00 TS -18.73 115.71 236 231 ______P__P__P_ SH111962 -1 -18.86 115.24 -18.88 115.32 TC 1 -18.46 116.57 TC 55 985 8 258
1962 SI WA 1962-02-03 00:00:00 TS -18.76 115.57 231 237 ______P__O__O_ SH111962 -1 -18.88 115.12 -18.90 115.20 TC 55 985 1 -18.50 116.40 TC 55 985 8 257
1962 SI WA 01:00:00 TS -18.79 115.44 985 bom 243 243 ______O__P__P_ SH111962 -1 -18.90 115.00 985 -18.92 115.09 TC 1 -18.55 116.22 TC 55 985 8 256
1962 SI WA 03:00:00 TS -18.85 115.18 246 246 ______P__P__P_ SH111962 -1 -18.94 114.80 -18.96 114.89 TC 1 -18.66 115.86 TC 55 985 7 256
1962 SI WA 06:00:00 TS -18.93 114.86 261 258 ______P__P__O_ SH111962 -1 -18.99 114.54 -19.00 114.63 TC 1 -18.80 115.40 TC 55 985 5 258
1962 SI WA 09:00:00 TS -18.97 114.62 270 270 ______P__P__P_ SH111962 -1 -19.01 114.33 -19.03 114.42 TC 1 -18.87 115.10 TC 55 985 4 261
1962 SI WA 11:00:00 TS -18.98 114.49 276 276 ______P__P__P_ SH111962 -1 -19.02 114.21 -19.03 114.29 TC 1 -18.89 114.96 TC 55 985 4 265
1962 SI WA 12:00:00 TS -18.99 114.43 282 282 ______P__P__O_ SH111962 -1 -19.03 114.15 -19.04 114.23 TC 1 -18.90 114.90 TC 55 985 3 269
1962 SI WA 15:00:00 TS -18.99 114.25 288 294 ______P__P__P_ SH111962 -1 -19.03 114.00 -19.03 114.07 TC 1 -18.90 114.69 TC 52 986 3 271
1962 SI WA 18:00:00 TS -18.98 114.09 300 300 ______P__P__O_ SH111962 -1 -19.02 113.86 -19.02 113.92 TC 1 -18.90 114.50 TC 50 987 3 269
1962 SI WA 21:00:00 TS -18.99 113.93 314 314 ______P__P__P_ SH111962 -1 -19.01 113.71 -19.01 113.76 TC 1 -18.95 114.30 TC 50 987 3 266
1962 SI WA 23:00:00 TS -19.00 113.81 321 321 ______P__P__P_ SH111962 -1 -19.01 113.61 -19.00 113.66 TC 1 -18.99 114.17 TC 50 987 3 267
1962 SI WA 1962-02-04 00:00:00 TS -19.00 113.75 321 325 ______P__O__O_ SH111962 -1 -19.00 113.56 -19.00 113.60 TC 45 990 1 -19.00 114.10 TC 50 988 3 267
1962 SI WA 01:00:00 TS -19.00 113.69 990 bom 325 325 ______O__P__P_ SH111962 -1 -19.00 113.50 990 -19.01 113.53 TC 1 -19.01 114.03 TC 50 988 4 267
1962 SI WA 03:00:00 TS -19.01 113.54 328 328 ______P__P__P_ SH111962 -1 -19.00 113.33 -19.02 113.40 TC 1 -19.01 113.90 TC 50 988 4 268
1962 SI WA 06:00:00 TS -19.02 113.32 332 332 ______P__P__O_ SH111962 -1 -19.01 113.08 -19.04 113.19 TC 1 -19.00 113.70 TC 50 989 4 268
1962 SI WA 09:00:00 TS -19.02 113.10 337 337 ______P__P__P_ SH111962 -1 -19.01 112.81 -19.06 112.98 TC 1 -19.00 113.51 TC 47 989 4 269
1962 SI WA 11:00:00 TS -19.03 112.95 343 343 ______P__P__P_ SH111962 -1 -19.01 112.64 -19.07 112.83 TC 1 -19.00 113.37 TC 45 989 4 269
1962 SI WA 12:00:00 TS -19.03 112.87 343 343 ______P__P__O_ SH111962 -1 -19.00 112.55 -19.07 112.76 TC 1 -19.00 113.30 TC 45 990 4 270
1962 SI WA 15:00:00 TS -19.03 112.63 355 355 ______P__P__P_ SH111962 -1 -19.00 112.31 -19.08 112.54 TC 1 -19.00 113.06 TC 45 990 4 270
1962 SI WA 18:00:00 TS -19.02 112.40 364 364 ______P__P__O_ SH111962 -1 -19.00 112.09 -19.07 112.30 TC 1 -19.00 112.80 TC 45 990 2 273
1962 SI WA 21:00:00 TS -19.01 112.43 990 bom 364 347 ______O__P__P_ SH111962 -1 -19.00 111.90 990 -19.04 112.06 TC 1 -19.00 112.54 TC 45 990 5 91
1962 SI WA 23:00:00 TS -19.03 112.82 347 337 ______P__PO_P_ SH111962 -1 -19.00 111.80 990 -19.02 111.89 TC -19.10 115.20 1 -19.00 112.38 TC 45 990 13 92
1962 SI WA 1962-02-05 00:00:00 TS -19.04 113.11 337 321 O_____P__OP_O_ jtwc_sh SH111962 -19.10 115.10 -1 -19.00 111.75 990 -19.00 111.80 TC 45 990 -19.11 115.14 1 -19.00 112.30 TC 45 990 14 94
1962 SI WA 01:00:00 TS -19.06 113.30 990 bom 321 321 P_____O__PP_P_ SH111962 -19.12 115.04 -1 -19.00 111.70 990 -18.97 111.71 TC -19.12 115.09 1 -19.01 112.23 TC 45 990 4 99
1962 SI WA 03:00:00 TS -19.07 113.30 321 321 P_____P__PP_P_ SH111962 -19.16 114.94 -1 -18.97 111.57 -18.91 111.52 TC -19.14 114.98 1 -19.01 112.10 TC 45 990 2 272
1962 SI WA 06:00:00 TS -19.05 113.13 326 326 O_____P__PP_O_ jtwc_sh SH111962 -19.20 114.80 -1 -18.90 111.33 -18.80 111.23 TC -19.17 114.83 1 -19.00 111.90 TC 45 990 3 282
1962 SI WA 09:00:00 TS -19.00 112.95 343 343 P_____P__PP_P_ SH111962 -19.21 114.70 -1 -18.79 111.06 -18.68 110.93 TC -19.19 114.69 1 -18.91 111.66 TC 45 990 4 288
1962 SI WA 11:00:00 TS -18.96 112.82 347 347 P_____P__PO_P_ SH111962 -19.20 114.64 -1 -18.71 110.85 -18.59 110.72 TC -19.20 114.60 1 -18.84 111.49 TC 45 990 4 290
1962 SI WA 12:00:00 TS -18.94 112.75 358 361 O_____P__PP_O_ jtwc_sh SH111962 -19.20 114.60 -1 -18.66 110.75 -18.55 110.62 TC -19.20 114.56 1 -18.80 111.40 TC 45 990 4 287
1962 SI WA 15:00:00 TS -18.87 112.53 370 370 P_____P__PP_P_ SH111962 -19.20 114.46 -1 -18.52 110.42 -18.42 110.31 TC -19.21 114.43 1 -18.70 111.11 TC 45 991 4 286
1962 SI WA 18:00:00 TS -18.81 112.30 389 389 O_____P__PP_O_ jtwc_sh SH111962 -19.20 114.30 -1 -18.38 110.08 -18.30 110.00 TC -19.20 114.31 1 -18.60 110.80 TC 45 992 6 285
1962 SI WA 21:00:00 TS -18.71 111.89 419 419 P_____P__PP_P_ SH111962 -19.20 114.15 -1 -18.25 109.74 -18.19 109.70 TC -19.20 114.19 1 -18.50 110.50 TC 42 992 11 284
1962 SI WA 23:00:00 TS -18.59 111.36 457 464 P_____P__PO_P_ SH111962 -19.20 114.05 -1 -18.17 109.52 -18.13 109.50 TC -19.20 114.10 1 -18.43 110.30 TC 40 992 22 283
1962 SI WA 1962-02-06 00:00:00 TS -18.46 110.76 506 528 O_____P__O__O_ jtwc_sh SH111962 -19.20 114.00 -1 -18.13 109.41 -18.10 109.40 TC 40 995 1 -18.40 110.20 TC 40 993 42 284
1962 SI WA 01:00:00 TS -18.26 109.91 995 bom 587 587 ______O__P__P_ SH111962 -1 -18.10 109.30 995 -18.07 109.31 TC 1 -18.36 110.10 TC 40 993 27 285
1962 SI WA 03:00:00 TS -18.11 109.40 641 641 ______P__P__P_ SH111962 -1 -18.03 109.16 -18.02 109.14 TC 1 -18.29 109.90 TC 40 993 9 288
1962 SI WA 06:00:00 TS -18.03 109.15 672 672 ______P__P__O_ SH111962 -1 -17.93 108.95 -17.95 108.88 TC 1 -18.20 109.60 TC 40 994 5 287
1962 SI WA 09:00:00 TS -17.96 108.89 688 688 ______P__P__P_ SH111962 -1 -17.85 108.75 -17.91 108.64 TC 1 -18.13 109.29 TC 40 994 5 283
1962 SI WA 11:00:00 TS -17.94 108.73 712 712 ______P__P__P_ SH111962 -1 -17.82 108.62 -17.89 108.47 TC 1 -18.11 109.09 TC 40 994 5 279
1962 SI WA 12:00:00 TS -17.93 108.64 720 720 ______P__P__O_ SH111962 -1 -17.80 108.54 -17.88 108.39 TC 1 -18.10 109.00 TC 40 995 5 273
1962 SI WA 15:00:00 TS -17.92 108.40 736 736 ______P__P__P_ SH111962 -1 -17.78 108.31 -17.88 108.13 TC 1 -18.09 108.74 TC 40 995 5 268
1962 SI WA 18:00:00 TS -17.94 108.14 761 755 ______P__P__O_ SH111962 -1 -17.81 108.05 -17.92 107.87 TC 1 -18.10 108.50 TC 40 995 5 262
1962 SI WA 21:00:00 TS -17.99 107.86 772 780 ______P__P__P_ SH111962 -1 -17.89 107.73 -17.99 107.59 TC 1 -18.10 108.25 TC 37 995 6 257
1962 SI WA 23:00:00 TS -18.05 107.65 789 792 ______P__P__P_ SH111962 -1 -17.98 107.48 -18.06 107.40 TC 1 -18.10 108.08 TC 35 995 6 254
1962 SI WA 1962-02-07 00:00:00 TS -18.08 107.55 800 800 ______P__O__O_ SH111962 -1 -18.04 107.34 -18.10 107.30 TC 35 997 1 -18.10 108.00 TC 35 996 7 252
1962 SI WA 01:00:00 TS -18.11 107.44 997 bom 809 809 ______O__P__P_ SH111962 -1 -18.10 107.20 997 -18.15 107.18 TC 1 -18.09 107.93 TC 35 996 7 251
1962 SI WA 03:00:00 TS -18.20 107.20 821 821 ______P__P__P_ SH111962 -1 -18.25 106.86 997 -18.26 106.95 TC 1 -18.08 107.78 TC 35 996 8 248
1962 SI WA 06:00:00 TS -18.36 106.80 847 847 ______P__P__O_ SH111962 -1 -18.51 106.33 997 -18.47 106.57 TC 1 -18.10 107.50 TC 35 996 9 245
1962 SI WA 08:00:00 TS -18.49 106.51 997 bom 869 869 ______O__P__P_ SH111962 -1 -18.70 106.00 997 -18.62 106.31 TC 1 -18.16 107.23 TC 35 996 9 243
1962 SI WA 09:00:00 TS -18.57 106.37 872 881 ______P__P__P_ SH111962 -1 -18.79 105.85 -18.70 106.18 TC 1 -18.21 107.07 TC 35 996 9 241
1962 SI WA 11:00:00 TS -18.72 106.09 893 893 ______P__P__P_ SH111962 -1 -18.96 105.58 -18.88 105.92 TC 1 -18.33 106.75 TC 35 996 9 239
1962 SI WA 12:00:00 TS -18.81 105.95 906 900 ______P__P__O_ SH111962 -1 -19.05 105.45 -18.97 105.79 TC 1 -18.40 106.60 TC 35 997 9 233
1962 SI WA 15:00:00 TS -19.08 105.57 918 922 ______P__P__P_ SH111962 -1 -19.32 105.12 -19.25 105.41 TC 1 -18.68 106.18 TC 35 997 9 230
1962 SI WA 18:00:00 TS -19.38 105.23 942 942 ______P__P__O_ SH111962 -1 -19.59 104.83 -19.53 105.05 TC 1 -19.00 105.80 TC 35 997 8 227
1962 SI WA 21:00:00 TS -19.65 104.93 962 958 ______P__P__P_ SH111962 -1 -19.86 104.59 -19.82 104.71 TC 1 -19.26 105.48 TC 35 997 8 226
1962 SI WA 23:00:00 TS -19.82 104.74 973 970 ______P__P__P_ SH111962 -1 -20.03 104.44 -20.01 104.50 TC 1 -19.42 105.29 TC 35 997 7 224
1962 SI WA 1962-02-08 00:00:00 TS -19.91 104.66 970 976 ______P__O__O_ SH111962 -1 -20.12 104.37 -20.10 104.40 TC 35 997 1 -19.50 105.20 TC 35 997 7 224
1962 SI WA 01:00:00 TS -19.99 104.57 997 bom 976 976 ______O__P__P_ SH111962 -1 -20.20 104.30 997 -20.18 104.31 TC 1 -19.58 105.09 TC 35 997 7 226
1962 SI WA 03:00:00 TS -20.15 104.39 992 989 ______P__P__P_ SH111962 -1 -20.36 104.13 -20.33 104.14 TC 1 -19.75 104.88 TC 35 997 7 225
1962 SI WA 06:00:00 TS -20.39 104.14 1012 1009 ______P__P__O_ SH111962 -1 -20.60 103.91 -20.56 103.91 TC 1 -20.00 104.60 TC 35 997 6 222
1962 SI WA 09:00:00 TS -20.63 103.93 1026 1024 ______P__P__P_ SH111962 -1 -20.83 103.70 -20.79 103.72 TC 1 -20.26 104.38 TC 35 997 6 218
1962 SI WA 11:00:00 TS -20.78 103.81 1031 1029 ______P__P__P_ SH111962 -1 -20.98 103.58 -20.94 103.60 TC 1 -20.42 104.26 TC 35 997 6 215
1962 SI WA 12:00:00 TS -20.86 103.76 1029 1037 ______P__P__O_ SH111962 -1 -21.05 103.52 -21.01 103.55 TC 1 -20.50 104.20 TC 35 997 5 214
1962 SI WA 15:00:00 TS -21.07 103.60 1045 1042 ______P__P__P_ SH111962 -1 -21.27 103.36 -21.24 103.40 TC 1 -20.70 104.05 TC 35 997 5 212
1962 SI WA 18:00:00 TS -21.28 103.47 1051 1051 ______P__P__O_ SH111962 -1 -21.49 103.23 -21.46 103.28 TC 1 -20.90 103.90 TC 35 997 5 210
1962 SI WA 21:00:00 TS -21.51 103.33 1068 1064 ______P__P__P_ SH111962 -1 -21.71 103.12 -21.68 103.18 TC 1 -21.15 103.70 TC 35 997 5 208
1962 SI WA 23:00:00 TS -21.67 103.25 1075 1075 ______P__P__P_ SH111962 -1 -21.85 103.05 -21.83 103.12 TC 1 -21.32 103.56 TC 35 997 5 206
1962 SI WA 1962-02-09 00:00:00 TS -21.74 103.21 1075 1073 ______P__O__O_ SH111962 -1 -21.93 103.03 -21.90 103.10 TC 35 998 1 -21.40 103.50 TC 35 997 5 207
1962 SI WA 01:00:00 TS -21.82 103.17 998 bom 1073 1073 ______O__P__P_ SH111962 -1 -22.00 103.00 998 -21.98 103.06 TC 1 -21.47 103.44 TC 35 997 5 208
1962 SI WA 03:00:00 TS -21.97 103.08 1081 1081 ______P__P__P_ SH111962 -1 -22.16 102.94 -22.14 102.98 TC 1 -21.60 103.33 TC 35 997 5 204
1962 SI WA 06:00:00 TS -22.19 102.98 1089 1086 ______P__P__O_ SH111962 -1 -22.40 102.86 -22.37 102.88 TC 1 -21.80 103.20 TC 35 997 5 198
1962 SI WA 09:00:00 TS -22.44 102.92 1093 1088 ______P__P__P_ SH111962 -1 -22.65 102.81 -22.61 102.80 TC 1 -22.05 103.13 TC 35 997 5 192
1962 SI WA 11:00:00 TS -22.60 102.89 1088 1086 ______P__P__P_ SH111962 -1 -22.81 102.79 -22.77 102.77 TC 1 -22.22 103.11 TC 35 997 5 189
1962 SI WA 12:00:00 TS -22.68 102.88 1086 1081 ______P__P__O_ SH111962 -1 -22.89 102.79 -22.84 102.75 TC 1 -22.30 103.10 TC 35 998 5 0
1962 SI WA 15:00:00 TS -22.90 102.87 1081 1077 ______P__P__P_ SH111962 -1 -23.12 102.78 -23.07 102.73 TC 1 -22.50 103.10 TC 35 998 4 176
1962 SI WA 18:00:00 TS -23.11 102.88 1077 1074 ______P__P__O_ SH111962 -1 -23.34 102.79 -23.29 102.75 TC 1 -22.70 103.10 TC 35 998 4 0
1962 SI WA 21:00:00 TS -23.33 102.89 1074 1070 ______P__P__P_ SH111962 -1 -23.55 102.82 -23.50 102.80 TC 1 -22.95 103.05 TC 32 998 4 174
1962 SI WA 23:00:00 TS -23.48 102.91 1070 1070 ______P__P__P_ SH111962 -1 -23.68 102.86 -23.64 102.86 TC 1 -23.12 103.01 TC 30 998 4 169
1962 SI WA 1962-02-10 00:00:00 TS -23.55 102.93 1070 1069 ______P__O__O_ SH111962 -1 -23.74 102.88 -23.70 102.90 TC 30 1000 1 -23.20 103.00 TC 30 999 4 167
1962 SI WA 01:00:00 TS -23.61 102.94 1000 bom 1069 1058 ______O__P__P_ SH111962 -1 -23.80 102.90 1000 -23.76 102.94 TC 1 -23.27 102.99 TC 30 999 4 164
1962 SI WA 03:00:00 TS -23.73 102.98 1058 1045 ______P__P__P_ SH111962 -1 -23.91 102.92 1000 -23.88 103.04 TC 1 -23.41 102.99 TC 30 999 4 159
1962 SI WA 06:00:00 TS -23.91 103.07 1045 1033 ______P__P__O_ SH111962 -1 -24.06 102.97 1001 -24.05 103.23 TC 1 -23.60 103.00 TC 30 999 4 151
1962 SI WA 09:00:00 TS -24.08 103.19 1033 1022 ______P__P__P_ SH111962 -1 -24.20 103.08 1001 -24.21 103.45 TC 1 -23.81 103.04 TC 30 999 4 143
1962 SI WA 11:00:00 TS -24.18 103.30 1002 bom 1022 1022 ______O__P__P_ SH111962 -1 -24.30 103.20 1002 -24.31 103.62 TC 1 -23.94 103.08 TC 30 999 3 37
1962 SI WA 12:00:00 TS -23.94 103.30 1025 1025 ______P__P__O_ SH111962 -1 -24.35 103.28 -24.36 103.70 TC 1 -24.00 103.10 TC 30 1000 9 0
1962 SI WA 15:00:00 TS -23.56 103.28 1029 1029 ______P__P__P_ SH111962 -1 -24.50 103.58 -24.50 103.98 TC 1 -24.16 103.15 TC 27 1001 4 355
1962 SI WA 18:00:00 TS -23.55 103.27 1029 1029 O_____P__P__O_ jtwc_sh SH111962 -21.90 102.30 -1 -24.65 103.95 -24.64 104.28 TC 1 -24.30 103.30 TC 25 1002 1 200
1962 SI WA 21:00:00 TS -23.65 103.24 1039 1037 P_____P__P__P_ SH111962 -22.51 102.23 -1 -24.80 104.38 -24.77 104.59 TC 1 -24.45 103.66 TC 25 1002 2 225
1962 SI WA 23:00:00 TS -23.67 103.14 1047 1047 P_____P__PO_P_ SH111962 -22.86 102.20 -1 -24.90 104.69 -24.86 104.79 TC -22.90 102.20 2 -24.55 103.96 TC 25 1002 4 271
1962 SI WA 1962-02-11 00:00:00 TS -23.65 103.02 1059 1059 O_____P__OP_O_ jtwc_sh SH111962 -23.00 102.20 -1 -24.95 104.84 -24.90 104.90 TC 20 1005 -22.96 102.20 2 -24.60 104.10 TC 25 1003 11 293
1962 SI WA 01:00:00 TS -23.52 102.75 1005 bom 1081 1081 P_____O___P_P_ SH111962 -23.11 102.21 -1 -25.00 105.00 1005 TC -23.02 102.20 2 -24.65 104.23 TC 24 1003 9 290
1962 SI WA 03:00:00 TS -23.49 102.54 1111 1111 P_________P_P_ SH111962 -23.27 102.23 -1 TC -23.14 102.22 2 -24.75 104.47 TC 22 1003 3 268
1962 SI WA 06:00:00 TS -23.53 102.47 1111 1111 O_________P_O_ jtwc_sh SH111962 -23.40 102.30 -1 TC -23.32 102.26 2 -24.90 104.80 TC 20 1004 2 261
1962 SI WA 09:00:00 TS -23.52 102.33 1131 1120 P_________P___ SH111962 -23.51 102.34 -1 TC -23.49 102.34 2 TC 1 243
1962 SI WA 11:00:00 TS -23.58 102.38 1120 1120 P_________O___ SH111962 -23.57 102.37 -1 TC -23.60 102.40 2 TC 2 143
1962 SI WA 12:00:00 TS -23.62 102.41 1120 1107 O_________P___ jtwc_sh SH111962 -23.60 102.40 -1 TC -23.65 102.43 2 3 143
1962 SI WA 15:00:00 TS -23.76 102.53 1107 1086 P_________P___ SH111962 -23.75 102.53 -1 TC -23.78 102.55 2 4 137
1962 SI WA 18:00:00 TS -23.90 102.70 1086 1065 O_________P___ jtwc_sh SH111962 -23.90 102.70 -1 TC -23.90 102.69 2 4 127
1962 SI WA 21:00:00 TS -24.00 102.88 1065 1054 P_________P___ SH111962 -23.99 102.89 -1 TC -24.02 102.87 2 4 121
1962 SI WA 23:00:00 TS -24.07 103.02 1054 1043 P_________O___ SH111962 -24.06 103.03 -1 TC -24.10 103.00 1 5 121
1962 SI WA 1962-02-12 00:00:00 TS -24.12 103.09 1043 1022 O_________P___ jtwc_sh SH111962 -24.10 103.10 -1 -24.15 103.07 1 5 129
1962 SI WA 03:00:00 TS -24.30 103.33 1022 990 P_________P___ SH111962 -24.30 103.34 -1 -24.31 103.30 1 6 130
1962 SI WA 06:00:00 TS -24.49 103.58 990 968 O_________P___ jtwc_sh SH111962 -24.50 103.60 -1 -24.47 103.55 1 6 124
1962 SI WA 09:00:00 TS -24.61 103.84 968 946 P_________P___ SH111962 -24.61 103.85 -1 -24.61 103.82 1 5 116
1962 SI WA 11:00:00 TS -24.68 104.01 946 936 P_________O___ SH111962 -24.67 104.02 -1 -24.70 104.00 1 5 113
1962 SI WA 12:00:00 TS -24.72 104.10 936 904 O_________P___ jtwc_sh SH111962 -24.70 104.10 -1 -24.74 104.09 1 5 113
1962 SI WA 15:00:00 TS -24.81 104.36 904 882 P_________P___ SH111962 -24.80 104.35 -1 -24.83 104.37 1 5 111
1962 SI WA 18:00:00 TS -24.90 104.63 882 850 O_________P___ jtwc_sh SH111962 -24.90 104.60 -1 -24.91 104.64 1 5 107
1962 SI WA 21:00:00 NR -24.96 104.92 850 830 __________P___ SH111962 -1 -24.96 104.92 1 5 103
1962 SI WA 23:00:00 NR -25.00 105.10 830 __________O___ SH111962 -1 -25.00 105.10 1 5 102